createdAt,value
2022-11-18T00:00:57.574Z,0
2022-11-18T00:03:56.832Z,0
2022-11-18T00:06:57.206Z,0
2022-11-18T00:09:57.293Z,0
2022-11-18T00:12:57.541Z,0.3333333333333333
2022-11-18T00:15:57.230Z,0
2022-11-18T00:18:56.962Z,0
2022-11-18T00:21:57.807Z,0
2022-11-18T00:24:57.712Z,0
2022-11-18T00:27:57.259Z,0
2022-11-18T00:30:57.111Z,0
2022-11-18T00:33:56.738Z,0
2022-11-18T00:36:57.144Z,0
2022-11-18T00:39:57.834Z,0
2022-11-18T00:42:57.527Z,0
2022-11-18T00:45:56.852Z,0
2022-11-18T00:48:56.932Z,0
2022-11-18T00:51:57.799Z,0
2022-11-18T00:54:57.591Z,0
2022-11-18T00:57:57.585Z,0
2022-11-18T01:00:57.242Z,0.3333333333333333
2022-11-18T01:03:57.327Z,0
2022-11-18T01:06:57.488Z,0
2022-11-18T01:09:57.555Z,0
2022-11-18T01:12:57.446Z,0.6666666666666666
2022-11-18T01:15:57.392Z,0
2022-11-18T01:18:57.142Z,0
2022-11-18T01:21:57.120Z,0
2022-11-18T01:24:57.232Z,0
2022-11-18T01:27:57.211Z,0
2022-11-18T01:30:57.507Z,0
2022-11-18T01:33:57.001Z,0
2022-11-18T01:36:56.889Z,0
2022-11-18T01:39:57.696Z,0
2022-11-18T01:42:57.344Z,0
2022-11-18T01:45:56.971Z,0
2022-11-18T01:48:56.927Z,0
2022-11-18T01:51:57.171Z,0
2022-11-18T01:54:56.934Z,0
2022-11-18T01:57:56.924Z,0
2022-11-18T02:00:57.782Z,0
2022-11-18T02:03:57.549Z,0
2022-11-18T02:06:57.124Z,0
2022-11-18T02:09:57.558Z,0
2022-11-18T02:12:57.378Z,0
2022-11-18T02:15:57.101Z,0
2022-11-18T02:18:58.187Z,0
2022-11-18T02:21:57.203Z,0
2022-11-18T02:24:57.474Z,0
2022-11-18T02:27:57.144Z,0
2022-11-18T02:30:57.739Z,0
2022-11-18T02:33:57.518Z,0
2022-11-18T02:36:57.287Z,0
2022-11-18T02:39:57.700Z,0
2022-11-18T02:42:57.500Z,0
2022-11-18T02:45:57.149Z,0
2022-11-18T02:48:56.797Z,0.3333333333333333
2022-11-18T02:51:57.093Z,0
2022-11-18T02:54:57.504Z,0.3333333333333333
2022-11-18T02:57:56.892Z,0
2022-11-18T03:00:57.980Z,0
2022-11-18T03:03:57.540Z,0.3333333333333333
2022-11-18T03:06:57.881Z,0
2022-11-18T03:09:57.960Z,0
2022-11-18T03:12:56.999Z,0
2022-11-18T03:15:57.185Z,0.3333333333333333
2022-11-18T03:18:57.635Z,0
2022-11-18T03:21:57.558Z,0
2022-11-18T03:24:56.751Z,0
2022-11-18T03:27:56.891Z,0
2022-11-18T03:30:57.352Z,0
2022-11-18T03:33:56.810Z,0.3333333333333333
2022-11-18T03:37:00.661Z,0
2022-11-18T03:39:57.366Z,0
2022-11-18T03:42:57.462Z,0
2022-11-18T03:45:57.378Z,0
2022-11-18T03:48:57.427Z,0
2022-11-18T03:51:56.952Z,0
2022-11-18T03:54:57.189Z,0
2022-11-18T03:57:57.058Z,0.6666666666666666
2022-11-18T04:00:58.156Z,0
2022-11-18T04:03:57.099Z,0
2022-11-18T04:06:57.091Z,0
2022-11-18T04:09:57.788Z,0
2022-11-18T04:13:00.672Z,0
2022-11-18T04:15:57.439Z,0
2022-11-18T04:19:00.183Z,0
2022-11-18T04:21:56.838Z,0
2022-11-18T04:24:57.836Z,0.3333333333333333
2022-11-18T04:27:57.979Z,0
2022-11-18T04:30:57.550Z,0
2022-11-18T04:33:57.155Z,0
2022-11-18T04:36:56.837Z,0
2022-11-18T04:39:57.543Z,0
2022-11-18T04:42:57.506Z,0
2022-11-18T04:45:57.560Z,0
2022-11-18T04:48:57.137Z,0
2022-11-18T04:51:57.160Z,0
2022-11-18T04:54:57.244Z,0
2022-11-18T04:57:57.900Z,0
2022-11-18T05:00:58.409Z,0
2022-11-18T05:03:57.653Z,0
2022-11-18T05:06:58.194Z,0
2022-11-18T05:09:58.042Z,0.3333333333333333
2022-11-18T05:12:58.136Z,0
2022-11-18T05:15:58.193Z,0
2022-11-18T05:18:57.253Z,0
2022-11-18T05:21:57.762Z,0
2022-11-18T05:24:57.101Z,0
2022-11-18T05:27:57.455Z,0
2022-11-18T05:30:57.622Z,0
2022-11-18T05:33:57.483Z,0
2022-11-18T05:36:59.615Z,0
2022-11-18T05:39:57.604Z,0
2022-11-18T05:42:57.250Z,0
2022-11-18T05:45:57.533Z,0
2022-11-18T05:48:57.843Z,0
2022-11-18T05:51:57.212Z,0
2022-11-18T05:54:57.853Z,0
2022-11-18T05:57:57.817Z,0
2022-11-18T06:00:57.854Z,0
2022-11-18T06:03:57.602Z,0
2022-11-18T06:06:57.451Z,0
2022-11-18T06:10:02.225Z,0
2022-11-18T06:12:57.348Z,0
2022-11-18T06:15:58.260Z,0
2022-11-18T06:18:57.589Z,0.3333333333333333
2022-11-18T06:21:57.132Z,0.3333333333333333
2022-11-18T06:24:58.140Z,0.6666666666666666
2022-11-18T06:27:57.185Z,1.6666666666666667
2022-11-18T06:30:57.967Z,2
2022-11-18T06:33:57.618Z,4
2022-11-18T06:36:56.970Z,7.333333333333333
2022-11-18T06:39:57.554Z,14.666666666666666
2022-11-18T06:42:56.889Z,21
2022-11-18T06:45:57.548Z,24.666666666666668
2022-11-18T06:48:57.052Z,29
2022-11-18T06:51:56.591Z,33
2022-11-18T06:54:57.297Z,37
2022-11-18T06:57:56.871Z,40
2022-11-18T07:00:57.530Z,46
2022-11-18T07:03:57.475Z,53.333333333333336
2022-11-18T07:06:57.417Z,62
2022-11-18T07:09:57.224Z,71.66666666666667
2022-11-18T07:12:57.673Z,79
2022-11-18T07:15:57.611Z,82
2022-11-18T07:18:57.567Z,82.33333333333333
2022-11-18T07:21:57.089Z,81.33333333333333
2022-11-18T07:24:57.487Z,75.66666666666667
2022-11-18T07:27:56.855Z,70
2022-11-18T07:30:57.014Z,63.333333333333336
2022-11-18T07:33:57.284Z,58
2022-11-18T07:36:57.483Z,53
2022-11-18T07:39:57.249Z,50.333333333333336
2022-11-18T07:42:57.572Z,53
2022-11-18T07:45:58.011Z,59.666666666666664
2022-11-18T07:48:56.806Z,69
2022-11-18T07:51:57.811Z,78.66666666666667
2022-11-18T07:54:57.583Z,91.66666666666667
2022-11-18T07:57:57.634Z,98
2022-11-18T08:00:57.727Z,105
2022-11-18T08:03:56.710Z,110.33333333333333
2022-11-18T08:06:57.596Z,114.66666666666667
2022-11-18T08:09:57.947Z,119
2022-11-18T08:12:56.816Z,120
2022-11-18T08:15:57.420Z,123.33333333333333
2022-11-18T08:18:57.249Z,124.66666666666667
2022-11-18T08:21:57.086Z,123.33333333333333
2022-11-18T08:24:57.217Z,137.33333333333334
2022-11-18T08:27:57.796Z,127
2022-11-18T08:30:57.315Z,143.33333333333334
2022-11-18T08:33:57.160Z,159
2022-11-18T08:36:57.703Z,183.66666666666666
2022-11-18T08:39:57.646Z,201.66666666666666
2022-11-18T08:42:57.033Z,243
2022-11-18T08:45:57.111Z,257
2022-11-18T08:48:56.983Z,262.6666666666667
2022-11-18T08:51:57.602Z,249
2022-11-18T08:54:57.457Z,220.33333333333334
2022-11-18T08:57:57.046Z,256.6666666666667
2022-11-18T09:00:57.020Z,281.3333333333333
2022-11-18T09:03:57.440Z,263
2022-11-18T09:06:56.960Z,219
2022-11-18T09:09:57.849Z,177
2022-11-18T09:13:07.047Z,128.33333333333334
2022-11-18T09:15:57.276Z,80
2022-11-18T09:18:57.651Z,81.66666666666667
2022-11-18T09:21:57.321Z,104.33333333333333
2022-11-18T09:24:57.500Z,104
2022-11-18T09:27:56.512Z,96
2022-11-18T09:30:57.555Z,121.33333333333333
2022-11-18T09:33:57.498Z,143
2022-11-18T09:36:57.417Z,117
2022-11-18T09:39:57.460Z,122.66666666666667
2022-11-18T09:42:57.425Z,127
2022-11-18T09:45:57.400Z,139
2022-11-18T09:48:57.619Z,150
2022-11-18T09:51:57.899Z,178.66666666666666
2022-11-18T09:54:57.545Z,173
2022-11-18T09:57:57.329Z,215
2022-11-18T10:00:57.614Z,247.66666666666666
2022-11-18T10:03:58.032Z,274.3333333333333
2022-11-18T10:06:56.927Z,246.66666666666666
2022-11-18T10:09:57.295Z,242.33333333333334
2022-11-18T10:12:57.817Z,222
2022-11-18T10:15:57.369Z,215
2022-11-18T10:19:01.008Z,213
2022-11-18T10:21:57.587Z,211
2022-11-18T10:24:56.704Z,187.33333333333334
2022-11-18T10:27:57.394Z,187.66666666666666
2022-11-18T10:30:57.861Z,187
2022-11-18T10:33:56.784Z,190
2022-11-18T10:36:57.142Z,195
2022-11-18T10:39:57.925Z,209
2022-11-18T10:42:58.129Z,205
2022-11-18T10:45:57.550Z,199
2022-11-18T10:48:57.418Z,187
2022-11-18T10:51:57.691Z,182
2022-11-18T10:54:57.255Z,170
2022-11-18T10:57:58.096Z,167.66666666666666
2022-11-18T11:00:57.571Z,172
2022-11-18T11:04:16.475Z,190
2022-11-18T11:06:57.313Z,206
2022-11-18T11:09:57.792Z,212
2022-11-18T11:12:56.882Z,211
2022-11-18T11:15:57.958Z,203.66666666666666
2022-11-18T11:18:56.954Z,212
2022-11-18T11:21:56.952Z,235.66666666666666
2022-11-18T11:24:57.017Z,272.6666666666667
2022-11-18T11:30:57.692Z,257.3333333333333
2022-11-18T11:33:57.870Z,259.6666666666667
2022-11-18T11:36:57.093Z,259
2022-11-18T11:39:57.303Z,275
2022-11-18T11:42:57.569Z,282
2022-11-18T11:45:57.003Z,285
2022-11-18T11:48:57.229Z,261
2022-11-18T11:51:57.612Z,247
2022-11-18T11:54:57.852Z,218
2022-11-18T11:57:57.274Z,237
2022-11-18T12:00:57.221Z,260
2022-11-18T12:03:57.281Z,320
2022-11-18T12:06:56.975Z,329
2022-11-18T12:09:58.081Z,267.3333333333333
2022-11-18T12:12:57.265Z,241.33333333333334
2022-11-18T12:15:57.372Z,300
2022-11-18T12:18:57.103Z,266.6666666666667
2022-11-18T12:21:57.054Z,268
2022-11-18T12:24:57.151Z,286.3333333333333
2022-11-18T12:27:58.877Z,268.3333333333333
2022-11-18T12:30:58.069Z,188.33333333333334
2022-11-18T12:33:57.003Z,144
2022-11-18T12:36:57.699Z,86.66666666666667
2022-11-18T12:39:57.887Z,93
2022-11-18T12:42:57.051Z,83
2022-11-18T12:45:57.166Z,84.33333333333333
2022-11-18T12:48:57.000Z,82.66666666666667
2022-11-18T12:51:56.637Z,79
2022-11-18T12:54:56.928Z,110
2022-11-18T12:57:57.583Z,101.33333333333333
2022-11-18T13:00:57.638Z,119.66666666666667
2022-11-18T13:03:57.303Z,138
2022-11-18T13:06:57.737Z,167
2022-11-18T13:09:57.064Z,163
2022-11-18T13:12:57.436Z,191.33333333333334
2022-11-18T13:15:57.762Z,111.33333333333333
2022-11-18T13:18:57.512Z,73.33333333333333
2022-11-18T13:21:57.637Z,75
2022-11-18T13:24:57.419Z,72.66666666666667
2022-11-18T13:27:57.146Z,52
2022-11-18T13:30:58.257Z,60
2022-11-18T13:33:57.629Z,82.33333333333333
2022-11-18T13:36:57.418Z,125.66666666666667
2022-11-18T13:39:57.611Z,124.66666666666667
2022-11-18T13:42:57.102Z,218
2022-11-18T13:45:57.331Z,280.6666666666667
2022-11-18T13:48:57.031Z,297
2022-11-18T13:51:57.139Z,274
2022-11-18T13:54:57.190Z,311
2022-11-18T13:57:57.062Z,394.3333333333333
2022-11-18T14:00:56.926Z,346
2022-11-18T14:03:56.864Z,285.3333333333333
2022-11-18T14:06:57.834Z,223.33333333333334
2022-11-18T14:09:57.138Z,220.66666666666666
2022-11-18T14:12:57.777Z,141.66666666666666
2022-11-18T14:15:57.339Z,95.66666666666667
2022-11-18T14:18:58.099Z,75.66666666666667
2022-11-18T14:21:57.112Z,93.33333333333333
2022-11-18T14:24:57.782Z,84.66666666666667
2022-11-18T14:27:57.549Z,74.33333333333333
2022-11-18T14:30:57.562Z,78.33333333333333
2022-11-18T14:33:58.224Z,85
2022-11-18T14:36:57.466Z,92.66666666666667
2022-11-18T14:39:58.242Z,86
2022-11-18T14:42:57.267Z,90.33333333333333
2022-11-18T14:45:57.927Z,84.33333333333333
2022-11-18T14:48:57.817Z,80
2022-11-18T14:51:58.166Z,102
2022-11-18T14:54:57.290Z,122
2022-11-18T14:57:58.172Z,131.66666666666666
2022-11-18T15:00:57.152Z,106
2022-11-18T15:03:56.865Z,115
2022-11-18T15:06:57.581Z,100
2022-11-18T15:09:57.582Z,74
2022-11-18T15:12:57.372Z,59.333333333333336
2022-11-18T15:15:56.966Z,56
2022-11-18T15:19:00.363Z,51
2022-11-18T15:21:57.421Z,46.666666666666664
2022-11-18T15:24:57.320Z,47
2022-11-18T15:27:58.013Z,38.666666666666664
2022-11-18T15:30:57.634Z,32.666666666666664
2022-11-18T15:34:02.091Z,20.666666666666668
2022-11-18T15:36:58.083Z,13
2022-11-18T15:39:57.525Z,11
2022-11-18T15:42:56.948Z,4.666666666666667
2022-11-18T15:45:57.418Z,2.6666666666666665
2022-11-18T15:48:57.795Z,2
2022-11-18T15:51:57.999Z,1
2022-11-18T15:54:57.401Z,0.3333333333333333
2022-11-18T15:57:57.154Z,0
2022-11-18T16:00:57.738Z,0
2022-11-18T16:03:58.113Z,0.3333333333333333
2022-11-18T16:06:57.170Z,0
2022-11-18T16:09:57.087Z,0
2022-11-18T16:12:57.600Z,0
2022-11-18T16:15:57.353Z,0
2022-11-18T16:18:57.856Z,0
2022-11-18T16:21:57.853Z,0
2022-11-18T16:24:57.546Z,0
2022-11-18T16:28:00.836Z,0
2022-11-18T16:30:57.294Z,0
2022-11-18T16:33:57.601Z,0
2022-11-18T16:36:57.100Z,0
2022-11-18T16:39:57.766Z,0
2022-11-18T16:42:57.663Z,0
2022-11-18T16:45:57.526Z,0
2022-11-18T16:48:57.179Z,0
2022-11-18T16:51:57.057Z,0
2022-11-18T16:54:57.308Z,0.3333333333333333
2022-11-18T16:57:57.308Z,0
2022-11-18T17:01:18.696Z,0.3333333333333333
2022-11-18T17:03:57.756Z,0.3333333333333333
2022-11-18T17:06:57.597Z,0
2022-11-18T17:09:57.327Z,0
2022-11-18T17:12:57.066Z,0
2022-11-18T17:15:56.762Z,0
2022-11-18T17:18:57.816Z,0
2022-11-18T17:21:57.595Z,0
2022-11-18T17:25:02.254Z,0
2022-11-18T17:27:57.028Z,0
2022-11-18T17:30:57.349Z,0
2022-11-18T17:33:58.295Z,0.3333333333333333
2022-11-18T17:37:03.094Z,0
2022-11-18T17:39:57.602Z,0.3333333333333333
2022-11-18T17:42:57.826Z,0
2022-11-18T17:45:57.433Z,0
2022-11-18T17:48:57.572Z,0
2022-11-18T17:51:56.891Z,0
2022-11-18T17:54:56.991Z,0
2022-11-18T17:57:57.012Z,0
2022-11-18T18:01:25.533Z,0
2022-11-18T18:03:57.275Z,0
2022-11-18T18:06:57.461Z,0.3333333333333333
2022-11-18T18:09:58.489Z,0
2022-11-18T18:12:57.326Z,0
2022-11-18T18:15:57.588Z,0
2022-11-18T18:18:56.982Z,0
2022-11-18T18:21:57.331Z,0
2022-11-18T18:24:57.481Z,0
2022-11-18T18:27:56.945Z,0
2022-11-18T18:30:57.343Z,0
2022-11-18T18:33:57.875Z,0
2022-11-18T18:36:56.961Z,0
2022-11-18T18:39:57.384Z,0
2022-11-18T18:42:57.925Z,0
2022-11-18T18:45:57.041Z,0
2022-11-18T18:48:57.494Z,0
2022-11-18T18:51:57.829Z,0
2022-11-18T18:54:57.779Z,0
2022-11-18T18:57:57.188Z,0.3333333333333333
2022-11-18T19:00:58.549Z,0
2022-11-18T19:03:57.569Z,0
2022-11-18T19:06:59.554Z,0
2022-11-18T19:09:57.550Z,0.3333333333333333
2022-11-18T19:12:57.795Z,0
2022-11-18T19:15:57.720Z,0
2022-11-18T19:18:57.683Z,0
2022-11-18T19:21:58.135Z,0
2022-11-18T19:24:58.357Z,0
2022-11-18T19:27:56.716Z,0
2022-11-18T19:30:57.375Z,0
2022-11-18T19:33:57.490Z,0
2022-11-18T19:36:57.020Z,0
2022-11-18T19:39:57.176Z,0.6666666666666666
2022-11-18T19:42:57.672Z,0
2022-11-18T19:45:57.629Z,0
2022-11-18T19:48:57.564Z,0
2022-11-18T19:51:57.058Z,0.3333333333333333
2022-11-18T19:54:57.026Z,0
2022-11-18T19:57:57.755Z,0
2022-11-18T20:00:57.746Z,0.3333333333333333
2022-11-18T20:03:56.748Z,0
2022-11-18T20:06:56.917Z,0.3333333333333333
2022-11-18T20:09:57.307Z,0
2022-11-18T20:12:57.751Z,0
2022-11-18T20:15:57.183Z,0.3333333333333333
2022-11-18T20:18:57.796Z,0
2022-11-18T20:21:56.982Z,0.3333333333333333
2022-11-18T20:24:57.606Z,0
2022-11-18T20:27:57.549Z,0
2022-11-18T20:30:57.924Z,0
2022-11-18T20:33:57.226Z,0
2022-11-18T20:36:57.833Z,0.3333333333333333
2022-11-18T20:39:57.438Z,0
2022-11-18T20:42:57.691Z,0
2022-11-18T20:45:57.375Z,0
2022-11-18T20:48:57.836Z,0
2022-11-18T20:51:57.928Z,0
2022-11-18T20:55:00.159Z,0
2022-11-18T20:57:57.343Z,0.3333333333333333
2022-11-18T21:01:01.573Z,0
2022-11-18T21:03:57.680Z,0
2022-11-18T21:06:57.713Z,0
2022-11-18T21:09:57.947Z,0
2022-11-18T21:12:57.486Z,0
2022-11-18T21:15:57.732Z,0
2022-11-18T21:18:57.506Z,0
2022-11-18T21:21:57.335Z,0
2022-11-18T21:24:57.953Z,0
2022-11-18T21:27:57.633Z,0
2022-11-18T21:30:57.506Z,0
2022-11-18T21:33:57.170Z,0
2022-11-18T21:36:57.513Z,0
2022-11-18T21:39:58.101Z,0
2022-11-18T21:42:58.157Z,0
2022-11-18T21:45:57.448Z,0
2022-11-18T21:49:00.333Z,0
2022-11-18T21:51:57.401Z,0
2022-11-18T21:54:57.872Z,0
2022-11-18T21:58:02.708Z,0
2022-11-18T22:00:57.459Z,0
2022-11-18T22:03:57.339Z,0
2022-11-18T22:06:57.774Z,0
2022-11-18T22:09:57.136Z,0
2022-11-18T22:12:57.688Z,0.3333333333333333
2022-11-18T22:15:57.946Z,0
2022-11-18T22:19:00.238Z,0
2022-11-18T22:21:57.636Z,0
2022-11-18T22:24:57.143Z,0
2022-11-18T22:27:57.568Z,0
2022-11-18T22:30:57.497Z,0
2022-11-18T22:33:56.831Z,0
2022-11-18T22:36:57.648Z,0
2022-11-18T22:39:58.082Z,0
2022-11-18T22:42:57.679Z,0
2022-11-18T22:45:57.755Z,0
2022-11-18T22:48:57.470Z,0
2022-11-18T22:51:57.992Z,0
2022-11-18T22:54:57.400Z,0
2022-11-18T22:57:57.867Z,0
2022-11-18T23:00:58.107Z,0
2022-11-18T23:03:56.810Z,0
2022-11-18T23:06:57.458Z,0
2022-11-18T23:09:57.863Z,0
2022-11-18T23:12:57.019Z,0
2022-11-18T23:15:57.652Z,0
2022-11-18T23:18:57.240Z,0
2022-11-18T23:21:57.131Z,0
2022-11-18T23:24:57.455Z,0
2022-11-18T23:27:57.726Z,0
2022-11-18T23:30:57.361Z,0
2022-11-18T23:33:56.962Z,0
2022-11-18T23:36:57.071Z,0
2022-11-18T23:39:57.001Z,0.3333333333333333
2022-11-18T23:42:57.177Z,0
2022-11-18T23:45:56.915Z,0
2022-11-18T23:48:57.039Z,0
2022-11-18T23:51:57.253Z,0
2022-11-18T23:54:56.959Z,0
2022-11-18T23:57:57.019Z,0
